sensor_id;sensor_type;location;lat;lon;timestamp;temperature;humidity
31975;DHT22;18500;43.618;1.474;2023-07-24T00:01:49;22.50;1.00
31975;DHT22;18500;43.618;1.474;2023-07-24T00:04:14;22.50;1.00
31975;DHT22;18500;43.618;1.474;2023-07-24T00:06:40;22.50;1.00
31975;DHT22;18500;43.618;1.474;2023-07-24T00:09:05;22.40;1.00
31975;DHT22;18500;43.618;1.474;2023-07-24T00:11:31;22.40;1.00
31975;DHT22;18500;43.618;1.474;2023-07-24T00:13:56;22.50;1.00
31975;DHT22;18500;43.618;1.474;2023-07-24T00:16:22;22.40;1.00
31975;DHT22;18500;43.618;1.474;2023-07-24T00:18:47;22.50;1.00
31975;DHT22;18500;43.618;1.474;2023-07-24T00:21:13;22.50;1.00
31975;DHT22;18500;43.618;1.474;2023-07-24T00:23:39;22.50;1.00
31975;DHT22;18500;43.618;1.474;2023-07-24T00:26:04;22.50;1.00
31975;DHT22;18500;43.618;1.474;2023-07-24T00:28:30;22.40;1.00
31975;DHT22;18500;43.618;1.474;2023-07-24T00:30:55;22.40;1.00
31975;DHT22;18500;43.618;1.474;2023-07-24T00:33:21;22.40;1.00
31975;DHT22;18500;43.618;1.474;2023-07-24T00:35:47;22.30;1.00
31975;DHT22;18500;43.618;1.474;2023-07-24T00:38:12;22.30;1.00
31975;DHT22;18500;43.618;1.474;2023-07-24T00:40:38;22.50;1.00
31975;DHT22;18500;43.618;1.474;2023-07-24T00:43:03;22.50;1.00
31975;DHT22;18500;43.618;1.474;2023-07-24T00:45:29;22.60;1.00
31975;DHT22;18500;43.618;1.474;2023-07-24T00:47:54;22.70;1.00
31975;DHT22;18500;43.618;1.474;2023-07-24T00:50:20;22.80;1.00
31975;DHT22;18500;43.618;1.474;2023-07-24T00:52:46;22.80;1.00
31975;DHT22;18500;43.618;1.474;2023-07-24T00:55:12;22.70;1.00
31975;DHT22;18500;43.618;1.474;2023-07-24T00:57:38;22.80;1.00
31975;DHT22;18500;43.618;1.474;2023-07-24T01:00:04;22.90;1.00
31975;DHT22;18500;43.618;1.474;2023-07-24T01:02:30;22.90;1.00
31975;DHT22;18500;43.618;1.474;2023-07-24T01:04:55;22.90;1.00
31975;DHT22;18500;43.618;1.474;2023-07-24T01:07:21;22.90;1.00
31975;DHT22;18500;43.618;1.474;2023-07-24T01:09:47;23.00;1.00
31975;DHT22;18500;43.618;1.474;2023-07-24T01:17:07;23.00;1.00
31975;DHT22;18500;43.618;1.474;2023-07-24T01:22:10;23.00;1.00
31975;DHT22;18500;43.618;1.474;2023-07-24T01:27:07;23.00;1.00
31975;DHT22;18500;43.618;1.474;2023-07-24T01:29:32;23.00;1.00
31975;DHT22;18500;43.618;1.474;2023-07-24T01:31:58;23.00;1.00
31975;DHT22;18500;43.618;1.474;2023-07-24T01:34:23;23.00;1.00
31975;DHT22;18500;43.618;1.474;2023-07-24T01:36:49;23.00;1.00
31975;DHT22;18500;43.618;1.474;2023-07-24T01:39:15;23.00;1.00
31975;DHT22;18500;43.618;1.474;2023-07-24T01:41:41;22.90;1.00
31975;DHT22;18500;43.618;1.474;2023-07-24T01:44:06;22.60;1.00
31975;DHT22;18500;43.618;1.474;2023-07-24T01:46:32;22.50;1.00
31975;DHT22;18500;43.618;1.474;2023-07-24T01:48:57;22.40;1.00
31975;DHT22;18500;43.618;1.474;2023-07-24T01:51:23;22.30;1.00
31975;DHT22;18500;43.618;1.474;2023-07-24T01:53:48;22.30;1.00
31975;DHT22;18500;43.618;1.474;2023-07-24T01:56:14;22.30;1.00
31975;DHT22;18500;43.618;1.474;2023-07-24T01:58:39;22.20;1.00
31975;DHT22;18500;43.618;1.474;2023-07-24T02:01:05;22.30;1.00
31975;DHT22;18500;43.618;1.474;2023-07-24T02:03:30;22.10;1.00
31975;DHT22;18500;43.618;1.474;2023-07-24T02:05:56;22.10;1.00
31975;DHT22;18500;43.618;1.474;2023-07-24T02:08:21;21.70;1.00
31975;DHT22;18500;43.618;1.474;2023-07-24T02:10:50;21.70;1.00
31975;DHT22;18500;43.618;1.474;2023-07-24T02:13:16;21.60;99.90
31975;DHT22;18500;43.618;1.474;2023-07-24T02:15:41;21.60;1.00
31975;DHT22;18500;43.618;1.474;2023-07-24T02:18:07;21.50;1.00
31975;DHT22;18500;43.618;1.474;2023-07-24T02:20:32;21.20;99.90
31975;DHT22;18500;43.618;1.474;2023-07-24T02:22:58;20.90;1.00
31975;DHT22;18500;43.618;1.474;2023-07-24T02:25:23;20.50;99.90
31975;DHT22;18500;43.618;1.474;2023-07-24T02:27:49;20.30;99.90
31975;DHT22;18500;43.618;1.474;2023-07-24T02:30:14;20.20;99.90
31975;DHT22;18500;43.618;1.474;2023-07-24T02:32:40;20.00;1.00
31975;DHT22;18500;43.618;1.474;2023-07-24T02:35:06;20.30;12.00
31975;DHT22;18500;43.618;1.474;2023-07-24T02:37:31;20.20;99.90
31975;DHT22;18500;43.618;1.474;2023-07-24T02:39:57;20.30;99.90
31975;DHT22;18500;43.618;1.474;2023-07-24T02:42:22;20.00;1.00
31975;DHT22;18500;43.618;1.474;2023-07-24T02:44:48;20.00;1.00
31975;DHT22;18500;43.618;1.474;2023-07-24T02:47:13;20.00;1.00
31975;DHT22;18500;43.618;1.474;2023-07-24T02:49:39;20.10;99.90
31975;DHT22;18500;43.618;1.474;2023-07-24T02:52:05;20.30;99.90
31975;DHT22;18500;43.618;1.474;2023-07-24T02:54:30;20.20;1.00
31975;DHT22;18500;43.618;1.474;2023-07-24T02:56:56;20.00;99.90
31975;DHT22;18500;43.618;1.474;2023-07-24T02:59:21;20.00;99.90
31975;DHT22;18500;43.618;1.474;2023-07-24T03:01:47;19.90;99.90
31975;DHT22;18500;43.618;1.474;2023-07-24T03:04:12;19.90;1.00
31975;DHT22;18500;43.618;1.474;2023-07-24T03:06:39;19.90;99.90
31975;DHT22;18500;43.618;1.474;2023-07-24T03:09:04;20.00;99.90
31975;DHT22;18500;43.618;1.474;2023-07-24T03:11:30;19.80;99.90
31975;DHT22;18500;43.618;1.474;2023-07-24T03:13:55;19.90;99.90
31975;DHT22;18500;43.618;1.474;2023-07-24T03:16:21;19.60;99.90
31975;DHT22;18500;43.618;1.474;2023-07-24T03:18:46;19.60;1.00
31975;DHT22;18500;43.618;1.474;2023-07-24T03:21:12;19.50;99.90
31975;DHT22;18500;43.618;1.474;2023-07-24T03:23:37;19.60;1.00
31975;DHT22;18500;43.618;1.474;2023-07-24T03:26:03;19.60;1.00
31975;DHT22;18500;43.618;1.474;2023-07-24T03:28:28;19.50;99.90
31975;DHT22;18500;43.618;1.474;2023-07-24T03:30:54;19.50;99.90
31975;DHT22;18500;43.618;1.474;2023-07-24T03:33:20;19.60;99.90
31975;DHT22;18500;43.618;1.474;2023-07-24T03:35:46;19.50;99.90
31975;DHT22;18500;43.618;1.474;2023-07-24T03:38:11;19.60;22.40
31975;DHT22;18500;43.618;1.474;2023-07-24T03:40:36;19.70;1.00
31975;DHT22;18500;43.618;1.474;2023-07-24T03:43:02;19.80;1.00
31975;DHT22;18500;43.618;1.474;2023-07-24T03:45:28;19.80;1.00
31975;DHT22;18500;43.618;1.474;2023-07-24T03:47:53;19.80;1.00
31975;DHT22;18500;43.618;1.474;2023-07-24T03:50:19;19.80;1.00
31975;DHT22;18500;43.618;1.474;2023-07-24T03:52:44;19.80;1.00
31975;DHT22;18500;43.618;1.474;2023-07-24T03:55:10;19.80;1.00
31975;DHT22;18500;43.618;1.474;2023-07-24T03:57:35;19.80;1.00
31975;DHT22;18500;43.618;1.474;2023-07-24T04:00:01;19.80;1.00
31975;DHT22;18500;43.618;1.474;2023-07-24T04:02:27;19.80;1.00
31975;DHT22;18500;43.618;1.474;2023-07-24T04:04:52;19.90;1.00
31975;DHT22;18500;43.618;1.474;2023-07-24T04:07:18;19.90;1.00
31975;DHT22;18500;43.618;1.474;2023-07-24T04:09:43;19.90;1.00
31975;DHT22;18500;43.618;1.474;2023-07-24T04:12:09;19.80;1.00
31975;DHT22;18500;43.618;1.474;2023-07-24T04:14:34;19.80;1.00
31975;DHT22;18500;43.618;1.474;2023-07-24T04:17:00;19.80;1.00
31975;DHT22;18500;43.618;1.474;2023-07-24T04:19:26;19.80;1.00
31975;DHT22;18500;43.618;1.474;2023-07-24T04:21:51;19.80;1.00
31975;DHT22;18500;43.618;1.474;2023-07-24T04:24:17;19.80;1.00
31975;DHT22;18500;43.618;1.474;2023-07-24T04:26:42;19.70;1.00
31975;DHT22;18500;43.618;1.474;2023-07-24T04:29:08;19.80;1.00
31975;DHT22;18500;43.618;1.474;2023-07-24T04:31:33;19.80;1.00
31975;DHT22;18500;43.618;1.474;2023-07-24T04:33:59;19.80;1.00
31975;DHT22;18500;43.618;1.474;2023-07-24T04:36:24;19.80;1.00
31975;DHT22;18500;43.618;1.474;2023-07-24T04:38:50;19.80;1.00
31975;DHT22;18500;43.618;1.474;2023-07-24T04:41:15;19.80;1.00
31975;DHT22;18500;43.618;1.474;2023-07-24T04:43:42;19.80;1.00
31975;DHT22;18500;43.618;1.474;2023-07-24T04:46:07;19.70;1.00
31975;DHT22;18500;43.618;1.474;2023-07-24T04:48:33;19.80;1.00
31975;DHT22;18500;43.618;1.474;2023-07-24T04:50:58;19.40;1.00
31975;DHT22;18500;43.618;1.474;2023-07-24T04:53:24;19.60;1.00
31975;DHT22;18500;43.618;1.474;2023-07-24T04:55:49;19.60;1.00
31975;DHT22;18500;43.618;1.474;2023-07-24T04:58:15;19.70;1.00
31975;DHT22;18500;43.618;1.474;2023-07-24T05:00:40;19.70;1.00
31975;DHT22;18500;43.618;1.474;2023-07-24T05:03:06;19.70;1.00
31975;DHT22;18500;43.618;1.474;2023-07-24T05:05:39;19.70;1.00
31975;DHT22;18500;43.618;1.474;2023-07-24T05:08:04;19.50;1.00
31975;DHT22;18500;43.618;1.474;2023-07-24T05:10:34;19.60;1.00
31975;DHT22;18500;43.618;1.474;2023-07-24T05:13:00;19.60;1.00
31975;DHT22;18500;43.618;1.474;2023-07-24T05:15:26;19.50;1.00
31975;DHT22;18500;43.618;1.474;2023-07-24T05:17:51;19.60;1.00
31975;DHT22;18500;43.618;1.474;2023-07-24T05:20:17;19.70;1.00
31975;DHT22;18500;43.618;1.474;2023-07-24T05:22:42;19.70;1.00
31975;DHT22;18500;43.618;1.474;2023-07-24T05:25:08;19.70;1.00
31975;DHT22;18500;43.618;1.474;2023-07-24T05:27:33;19.80;1.00
31975;DHT22;18500;43.618;1.474;2023-07-24T05:29:59;19.80;1.00
31975;DHT22;18500;43.618;1.474;2023-07-24T05:32:24;19.80;1.00
31975;DHT22;18500;43.618;1.474;2023-07-24T05:34:50;19.70;1.00
31975;DHT22;18500;43.618;1.474;2023-07-24T05:37:15;19.80;1.00
31975;DHT22;18500;43.618;1.474;2023-07-24T05:39:41;19.80;1.00
31975;DHT22;18500;43.618;1.474;2023-07-24T05:42:07;19.80;1.00
31975;DHT22;18500;43.618;1.474;2023-07-24T05:44:32;19.70;1.00
31975;DHT22;18500;43.618;1.474;2023-07-24T05:46:58;19.80;1.00
31975;DHT22;18500;43.618;1.474;2023-07-24T05:49:23;19.80;1.00
31975;DHT22;18500;43.618;1.474;2023-07-24T05:51:49;19.90;1.00
31975;DHT22;18500;43.618;1.474;2023-07-24T05:54:15;19.90;1.00
31975;DHT22;18500;43.618;1.474;2023-07-24T05:56:40;19.90;1.00
31975;DHT22;18500;43.618;1.474;2023-07-24T05:59:06;19.90;1.00
31975;DHT22;18500;43.618;1.474;2023-07-24T06:01:31;19.90;1.00
31975;DHT22;18500;43.618;1.474;2023-07-24T06:03:57;19.90;1.00
31975;DHT22;18500;43.618;1.474;2023-07-24T06:06:22;20.00;1.00
31975;DHT22;18500;43.618;1.474;2023-07-24T06:08:48;20.10;1.00
31975;DHT22;18500;43.618;1.474;2023-07-24T06:11:13;20.30;1.00
31975;DHT22;18500;43.618;1.474;2023-07-24T06:13:39;20.50;1.00
31975;DHT22;18500;43.618;1.474;2023-07-24T06:16:04;20.70;1.00
31975;DHT22;18500;43.618;1.474;2023-07-24T06:18:30;20.80;1.00
31975;DHT22;18500;43.618;1.474;2023-07-24T06:20:55;20.90;1.00
31975;DHT22;18500;43.618;1.474;2023-07-24T06:23:21;20.80;1.00
31975;DHT22;18500;43.618;1.474;2023-07-24T06:25:46;20.90;1.00
31975;DHT22;18500;43.618;1.474;2023-07-24T06:28:12;20.60;1.00
31975;DHT22;18500;43.618;1.474;2023-07-24T06:30:40;20.50;1.00
31975;DHT22;18500;43.618;1.474;2023-07-24T06:33:06;20.60;1.00
31975;DHT22;18500;43.618;1.474;2023-07-24T06:35:31;20.70;1.00
31975;DHT22;18500;43.618;1.474;2023-07-24T06:37:57;20.80;1.00
31975;DHT22;18500;43.618;1.474;2023-07-24T06:40:22;20.90;1.00
31975;DHT22;18500;43.618;1.474;2023-07-24T06:42:48;21.00;1.00
31975;DHT22;18500;43.618;1.474;2023-07-24T06:45:13;21.10;1.00
31975;DHT22;18500;43.618;1.474;2023-07-24T06:47:39;21.30;1.00
31975;DHT22;18500;43.618;1.474;2023-07-24T06:50:04;21.10;1.00
31975;DHT22;18500;43.618;1.474;2023-07-24T06:52:31;21.20;1.00
31975;DHT22;18500;43.618;1.474;2023-07-24T06:54:57;21.10;1.00
31975;DHT22;18500;43.618;1.474;2023-07-24T06:57:23;21.00;1.00
31975;DHT22;18500;43.618;1.474;2023-07-24T06:59:49;20.80;1.00
31975;DHT22;18500;43.618;1.474;2023-07-24T07:02:15;20.80;1.00
31975;DHT22;18500;43.618;1.474;2023-07-24T07:04:40;20.90;1.00
31975;DHT22;18500;43.618;1.474;2023-07-24T07:07:06;20.90;1.00
31975;DHT22;18500;43.618;1.474;2023-07-24T07:09:31;20.90;1.00
31975;DHT22;18500;43.618;1.474;2023-07-24T07:11:57;21.00;1.00
31975;DHT22;18500;43.618;1.474;2023-07-24T07:14:22;21.20;1.00
31975;DHT22;18500;43.618;1.474;2023-07-24T07:16:48;21.40;1.00
31975;DHT22;18500;43.618;1.474;2023-07-24T07:19:13;21.50;1.00
31975;DHT22;18500;43.618;1.474;2023-07-24T07:21:39;21.70;1.00
31975;DHT22;18500;43.618;1.474;2023-07-24T07:24:05;21.60;1.00
31975;DHT22;18500;43.618;1.474;2023-07-24T07:26:30;21.60;1.00
31975;DHT22;18500;43.618;1.474;2023-07-24T07:28:56;21.60;1.00
31975;DHT22;18500;43.618;1.474;2023-07-24T07:31:21;21.40;1.00
31975;DHT22;18500;43.618;1.474;2023-07-24T07:33:47;21.40;1.00
31975;DHT22;18500;43.618;1.474;2023-07-24T07:36:13;21.70;1.00
31975;DHT22;18500;43.618;1.474;2023-07-24T07:38:39;22.00;1.00
31975;DHT22;18500;43.618;1.474;2023-07-24T07:41:05;22.00;1.00
31975;DHT22;18500;43.618;1.474;2023-07-24T07:43:31;21.90;1.00
31975;DHT22;18500;43.618;1.474;2023-07-24T07:45:56;21.30;1.00
31975;DHT22;18500;43.618;1.474;2023-07-24T07:48:22;21.40;1.00
31975;DHT22;18500;43.618;1.474;2023-07-24T07:50:51;21.70;1.00
31975;DHT22;18500;43.618;1.474;2023-07-24T07:53:16;22.10;1.00
31975;DHT22;18500;43.618;1.474;2023-07-24T07:55:42;22.50;1.00
31975;DHT22;18500;43.618;1.474;2023-07-24T07:58:07;22.60;1.00
31975;DHT22;18500;43.618;1.474;2023-07-24T08:00:34;22.60;1.00
31975;DHT22;18500;43.618;1.474;2023-07-24T08:02:59;22.70;1.00
31975;DHT22;18500;43.618;1.474;2023-07-24T08:05:25;22.50;1.00
31975;DHT22;18500;43.618;1.474;2023-07-24T08:07:50;22.40;1.00
31975;DHT22;18500;43.618;1.474;2023-07-24T08:10:16;21.90;1.00
31975;DHT22;18500;43.618;1.474;2023-07-24T08:12:42;21.90;1.00
31975;DHT22;18500;43.618;1.474;2023-07-24T08:15:08;21.90;1.00
31975;DHT22;18500;43.618;1.474;2023-07-24T08:17:33;22.20;1.00
31975;DHT22;18500;43.618;1.474;2023-07-24T08:19:59;22.60;1.00
31975;DHT22;18500;43.618;1.474;2023-07-24T08:22:24;22.30;1.00
31975;DHT22;18500;43.618;1.474;2023-07-24T08:24:50;22.20;1.00
31975;DHT22;18500;43.618;1.474;2023-07-24T08:27:16;22.00;1.00
31975;DHT22;18500;43.618;1.474;2023-07-24T08:29:42;21.90;1.00
31975;DHT22;18500;43.618;1.474;2023-07-24T08:32:07;22.30;1.00
31975;DHT22;18500;43.618;1.474;2023-07-24T08:34:33;22.40;1.00
31975;DHT22;18500;43.618;1.474;2023-07-24T08:36:58;22.60;1.00
31975;DHT22;18500;43.618;1.474;2023-07-24T08:39:24;22.60;1.00
31975;DHT22;18500;43.618;1.474;2023-07-24T08:41:49;22.70;1.00
31975;DHT22;18500;43.618;1.474;2023-07-24T08:44:15;22.60;1.00
31975;DHT22;18500;43.618;1.474;2023-07-24T08:46:41;22.60;1.00
31975;DHT22;18500;43.618;1.474;2023-07-24T08:49:11;22.70;1.00
31975;DHT22;18500;43.618;1.474;2023-07-24T08:51:36;22.70;1.00
31975;DHT22;18500;43.618;1.474;2023-07-24T08:54:02;22.70;1.00
31975;DHT22;18500;43.618;1.474;2023-07-24T08:56:29;22.90;1.00
31975;DHT22;18500;43.618;1.474;2023-07-24T08:58:55;23.20;1.00
31975;DHT22;18500;43.618;1.474;2023-07-24T09:01:20;23.40;1.00
31975;DHT22;18500;43.618;1.474;2023-07-24T09:03:46;23.20;1.00
31975;DHT22;18500;43.618;1.474;2023-07-24T09:06:11;22.90;1.00
31975;DHT22;18500;43.618;1.474;2023-07-24T09:08:40;22.80;1.00
31975;DHT22;18500;43.618;1.474;2023-07-24T09:11:06;22.80;1.00
31975;DHT22;18500;43.618;1.474;2023-07-24T09:13:33;22.80;1.00
31975;DHT22;18500;43.618;1.474;2023-07-24T09:15:58;22.70;1.00
31975;DHT22;18500;43.618;1.474;2023-07-24T09:18:24;22.90;1.00
31975;DHT22;18500;43.618;1.474;2023-07-24T09:20:50;22.90;1.00
31975;DHT22;18500;43.618;1.474;2023-07-24T09:23:17;23.20;1.00
31975;DHT22;18500;43.618;1.474;2023-07-24T09:25:50;23.50;1.00
31975;DHT22;18500;43.618;1.474;2023-07-24T09:28:16;23.40;1.00
31975;DHT22;18500;43.618;1.474;2023-07-24T09:30:42;23.40;1.00
31975;DHT22;18500;43.618;1.474;2023-07-24T09:33:16;23.60;1.00
31975;DHT22;18500;43.618;1.474;2023-07-24T09:35:41;23.80;1.00
31975;DHT22;18500;43.618;1.474;2023-07-24T09:38:08;23.50;1.00
31975;DHT22;18500;43.618;1.474;2023-07-24T09:40:41;23.90;1.00
31975;DHT22;18500;43.618;1.474;2023-07-24T09:43:15;23.80;1.00
31975;DHT22;18500;43.618;1.474;2023-07-24T09:45:40;23.70;1.00
31975;DHT22;18500;43.618;1.474;2023-07-24T09:48:06;23.60;1.00
31975;DHT22;18500;43.618;1.474;2023-07-24T09:50:36;23.50;1.00
31975;DHT22;18500;43.618;1.474;2023-07-24T09:53:02;23.60;1.00
31975;DHT22;18500;43.618;1.474;2023-07-24T09:55:35;23.90;1.00
31975;DHT22;18500;43.618;1.474;2023-07-24T09:58:03;24.00;1.00
31975;DHT22;18500;43.618;1.474;2023-07-24T10:00:28;24.00;1.00
31975;DHT22;18500;43.618;1.474;2023-07-24T10:02:56;24.30;1.00
31975;DHT22;18500;43.618;1.474;2023-07-24T10:05:21;24.20;1.00
31975;DHT22;18500;43.618;1.474;2023-07-24T10:07:47;24.40;1.00
31975;DHT22;18500;43.618;1.474;2023-07-24T10:10:13;24.40;1.00
31975;DHT22;18500;43.618;1.474;2023-07-24T10:12:39;24.50;1.00
31975;DHT22;18500;43.618;1.474;2023-07-24T10:15:05;24.50;1.00
31975;DHT22;18500;43.618;1.474;2023-07-24T10:17:37;24.20;1.00
31975;DHT22;18500;43.618;1.474;2023-07-24T10:20:03;23.90;1.00
31975;DHT22;18500;43.618;1.474;2023-07-24T10:22:29;23.60;1.00
31975;DHT22;18500;43.618;1.474;2023-07-24T10:24:55;23.90;1.00
31975;DHT22;18500;43.618;1.474;2023-07-24T10:27:24;24.00;1.00
31975;DHT22;18500;43.618;1.474;2023-07-24T10:29:59;24.40;1.00
31975;DHT22;18500;43.618;1.474;2023-07-24T10:32:25;24.90;1.00
31975;DHT22;18500;43.618;1.474;2023-07-24T10:35:06;24.70;1.00
31975;DHT22;18500;43.618;1.474;2023-07-24T10:37:33;24.70;1.00
31975;DHT22;18500;43.618;1.474;2023-07-24T10:40:00;24.70;1.00
31975;DHT22;18500;43.618;1.474;2023-07-24T10:42:25;24.80;1.00
31975;DHT22;18500;43.618;1.474;2023-07-24T10:45:12;24.60;1.00
31975;DHT22;18500;43.618;1.474;2023-07-24T10:47:37;24.90;1.00
31975;DHT22;18500;43.618;1.474;2023-07-24T10:50:02;24.60;1.00
31975;DHT22;18500;43.618;1.474;2023-07-24T10:52:31;24.40;1.00
31975;DHT22;18500;43.618;1.474;2023-07-24T10:55:01;24.40;1.00
31975;DHT22;18500;43.618;1.474;2023-07-24T10:57:28;24.00;1.00
31975;DHT22;18500;43.618;1.474;2023-07-24T10:59:54;24.60;1.00
31975;DHT22;18500;43.618;1.474;2023-07-24T11:02:19;25.10;1.00
31975;DHT22;18500;43.618;1.474;2023-07-24T11:04:45;25.40;1.00
31975;DHT22;18500;43.618;1.474;2023-07-24T11:07:11;25.70;1.00
31975;DHT22;18500;43.618;1.474;2023-07-24T11:09:39;25.60;1.00
31975;DHT22;18500;43.618;1.474;2023-07-24T11:12:15;24.90;1.00
31975;DHT22;18500;43.618;1.474;2023-07-24T11:14:45;25.40;1.00
31975;DHT22;18500;43.618;1.474;2023-07-24T11:17:11;25.50;1.00
31975;DHT22;18500;43.618;1.474;2023-07-24T11:19:36;25.20;1.00
31975;DHT22;18500;43.618;1.474;2023-07-24T11:22:02;25.50;1.00
31975;DHT22;18500;43.618;1.474;2023-07-24T11:24:29;25.80;1.00
31975;DHT22;18500;43.618;1.474;2023-07-24T11:26:54;25.90;1.00
31975;DHT22;18500;43.618;1.474;2023-07-24T11:29:20;26.00;1.00
31975;DHT22;18500;43.618;1.474;2023-07-24T11:31:45;26.10;1.00
31975;DHT22;18500;43.618;1.474;2023-07-24T11:34:10;25.40;1.00
31975;DHT22;18500;43.618;1.474;2023-07-24T11:36:37;25.70;1.00
31975;DHT22;18500;43.618;1.474;2023-07-24T11:39:03;25.50;1.00
31975;DHT22;18500;43.618;1.474;2023-07-24T11:41:29;25.90;1.00
31975;DHT22;18500;43.618;1.474;2023-07-24T11:43:54;25.80;1.00
31975;DHT22;18500;43.618;1.474;2023-07-24T11:46:23;25.10;1.00
31975;DHT22;18500;43.618;1.474;2023-07-24T11:48:49;24.90;1.00
31975;DHT22;18500;43.618;1.474;2023-07-24T11:51:18;24.20;1.00
31975;DHT22;18500;43.618;1.474;2023-07-24T11:53:44;24.40;1.00
31975;DHT22;18500;43.618;1.474;2023-07-24T11:56:13;25.10;1.00
31975;DHT22;18500;43.618;1.474;2023-07-24T11:58:39;25.50;1.00
31975;DHT22;18500;43.618;1.474;2023-07-24T12:01:04;26.30;1.00
31975;DHT22;18500;43.618;1.474;2023-07-24T12:03:30;26.50;1.00
31975;DHT22;18500;43.618;1.474;2023-07-24T12:05:55;26.40;1.00
31975;DHT22;18500;43.618;1.474;2023-07-24T12:08:29;26.00;1.00
31975;DHT22;18500;43.618;1.474;2023-07-24T12:10:55;25.60;1.00
31975;DHT22;18500;43.618;1.474;2023-07-24T12:13:20;25.40;1.00
31975;DHT22;18500;43.618;1.474;2023-07-24T12:15:46;25.80;1.00
31975;DHT22;18500;43.618;1.474;2023-07-24T12:18:11;25.90;1.00
31975;DHT22;18500;43.618;1.474;2023-07-24T12:20:37;25.60;1.00
31975;DHT22;18500;43.618;1.474;2023-07-24T12:23:03;25.70;1.00
31975;DHT22;18500;43.618;1.474;2023-07-24T12:25:28;25.90;1.00
31975;DHT22;18500;43.618;1.474;2023-07-24T12:27:54;26.00;1.00
31975;DHT22;18500;43.618;1.474;2023-07-24T12:30:19;26.10;1.00
31975;DHT22;18500;43.618;1.474;2023-07-24T12:32:45;26.20;1.00
31975;DHT22;18500;43.618;1.474;2023-07-24T12:35:11;27.70;1.00
31975;DHT22;18500;43.618;1.474;2023-07-24T12:37:36;26.90;1.00
31975;DHT22;18500;43.618;1.474;2023-07-24T12:40:04;26.90;1.00
31975;DHT22;18500;43.618;1.474;2023-07-24T12:42:30;26.60;1.00
31975;DHT22;18500;43.618;1.474;2023-07-24T12:44:55;26.80;1.00
31975;DHT22;18500;43.618;1.474;2023-07-24T12:47:21;28.80;1.00
31975;DHT22;18500;43.618;1.474;2023-07-24T12:49:46;29.10;1.00
31975;DHT22;18500;43.618;1.474;2023-07-24T12:52:12;29.10;1.00
31975;DHT22;18500;43.618;1.474;2023-07-24T12:54:38;27.50;1.00
31975;DHT22;18500;43.618;1.474;2023-07-24T12:57:03;29.10;1.00
31975;DHT22;18500;43.618;1.474;2023-07-24T12:59:29;31.00;1.00
31975;DHT22;18500;43.618;1.474;2023-07-24T13:01:54;33.90;99.90
31975;DHT22;18500;43.618;1.474;2023-07-24T13:04:20;37.00;99.90
31975;DHT22;18500;43.618;1.474;2023-07-24T13:06:46;32.30;99.90
31975;DHT22;18500;43.618;1.474;2023-07-24T13:09:11;28.50;1.00
31975;DHT22;18500;43.618;1.474;2023-07-24T13:11:37;27.10;1.00
31975;DHT22;18500;43.618;1.474;2023-07-24T13:14:02;26.40;1.00
31975;DHT22;18500;43.618;1.474;2023-07-24T13:16:28;26.40;1.00
31975;DHT22;18500;43.618;1.474;2023-07-24T13:18:53;25.40;1.00
31975;DHT22;18500;43.618;1.474;2023-07-24T13:21:19;24.90;1.00
31975;DHT22;18500;43.618;1.474;2023-07-24T13:23:44;24.60;1.00
31975;DHT22;18500;43.618;1.474;2023-07-24T13:26:10;24.10;1.00
31975;DHT22;18500;43.618;1.474;2023-07-24T13:28:36;23.10;1.00
31975;DHT22;18500;43.618;1.474;2023-07-24T13:31:15;23.10;1.00
31975;DHT22;18500;43.618;1.474;2023-07-24T13:33:41;23.10;1.00
31975;DHT22;18500;43.618;1.474;2023-07-24T13:36:06;23.10;1.00
31975;DHT22;18500;43.618;1.474;2023-07-24T13:38:32;23.20;1.00
31975;DHT22;18500;43.618;1.474;2023-07-24T13:40:58;23.20;1.00
31975;DHT22;18500;43.618;1.474;2023-07-24T13:43:23;22.90;1.00
31975;DHT22;18500;43.618;1.474;2023-07-24T13:45:49;22.90;1.00
31975;DHT22;18500;43.618;1.474;2023-07-24T13:48:14;22.80;1.00
31975;DHT22;18500;43.618;1.474;2023-07-24T13:50:40;22.70;1.00
31975;DHT22;18500;43.618;1.474;2023-07-24T13:53:05;22.30;1.00
31975;DHT22;18500;43.618;1.474;2023-07-24T13:55:31;22.60;1.00
31975;DHT22;18500;43.618;1.474;2023-07-24T13:57:56;22.60;1.00
31975;DHT22;18500;43.618;1.474;2023-07-24T14:00:22;22.70;1.00
31975;DHT22;18500;43.618;1.474;2023-07-24T14:02:47;22.70;1.00
31975;DHT22;18500;43.618;1.474;2023-07-24T14:05:13;22.70;1.00
31975;DHT22;18500;43.618;1.474;2023-07-24T14:07:39;22.90;1.00
31975;DHT22;18500;43.618;1.474;2023-07-24T14:10:04;23.00;1.00
31975;DHT22;18500;43.618;1.474;2023-07-24T14:12:30;23.20;1.00
31975;DHT22;18500;43.618;1.474;2023-07-24T14:14:56;23.30;1.00
31975;DHT22;18500;43.618;1.474;2023-07-24T14:17:21;23.40;1.00
31975;DHT22;18500;43.618;1.474;2023-07-24T14:19:47;23.50;1.00
31975;DHT22;18500;43.618;1.474;2023-07-24T14:22:12;23.60;1.00
31975;DHT22;18500;43.618;1.474;2023-07-24T14:24:38;23.80;1.00
31975;DHT22;18500;43.618;1.474;2023-07-24T14:27:03;24.30;1.00
31975;DHT22;18500;43.618;1.474;2023-07-24T14:29:29;24.60;1.00
31975;DHT22;18500;43.618;1.474;2023-07-24T14:31:54;24.60;1.00
31975;DHT22;18500;43.618;1.474;2023-07-24T14:34:20;24.30;1.00
31975;DHT22;18500;43.618;1.474;2023-07-24T14:36:45;23.90;1.00
31975;DHT22;18500;43.618;1.474;2023-07-24T14:39:11;23.80;1.00
31975;DHT22;18500;43.618;1.474;2023-07-24T14:41:36;23.90;1.00
31975;DHT22;18500;43.618;1.474;2023-07-24T14:44:02;23.80;1.00
31975;DHT22;18500;43.618;1.474;2023-07-24T14:46:27;23.30;1.00
31975;DHT22;18500;43.618;1.474;2023-07-24T14:48:53;23.40;1.00
31975;DHT22;18500;43.618;1.474;2023-07-24T14:51:18;23.60;1.00
31975;DHT22;18500;43.618;1.474;2023-07-24T14:53:44;23.80;1.00
31975;DHT22;18500;43.618;1.474;2023-07-24T14:56:09;23.80;1.00
31975;DHT22;18500;43.618;1.474;2023-07-24T14:58:35;23.80;1.00
31975;DHT22;18500;43.618;1.474;2023-07-24T15:01:00;23.80;1.00
31975;DHT22;18500;43.618;1.474;2023-07-24T15:03:26;23.90;1.00
31975;DHT22;18500;43.618;1.474;2023-07-24T15:05:51;23.90;1.00
31975;DHT22;18500;43.618;1.474;2023-07-24T15:08:17;23.70;1.00
31975;DHT22;18500;43.618;1.474;2023-07-24T15:10:43;23.40;1.00
31975;DHT22;18500;43.618;1.474;2023-07-24T15:13:09;23.50;1.00
31975;DHT22;18500;43.618;1.474;2023-07-24T15:15:35;23.60;1.00
31975;DHT22;18500;43.618;1.474;2023-07-24T15:18:00;23.70;1.00
31975;DHT22;18500;43.618;1.474;2023-07-24T15:20:26;23.70;1.00
31975;DHT22;18500;43.618;1.474;2023-07-24T15:22:51;24.00;1.00
31975;DHT22;18500;43.618;1.474;2023-07-24T15:25:20;24.00;1.00
31975;DHT22;18500;43.618;1.474;2023-07-24T15:27:46;24.00;1.00
31975;DHT22;18500;43.618;1.474;2023-07-24T15:30:11;23.90;1.00
31975;DHT22;18500;43.618;1.474;2023-07-24T15:32:37;23.80;1.00
31975;DHT22;18500;43.618;1.474;2023-07-24T15:35:03;23.70;1.00
31975;DHT22;18500;43.618;1.474;2023-07-24T15:37:29;23.60;1.00
31975;DHT22;18500;43.618;1.474;2023-07-24T15:39:55;23.50;1.00
31975;DHT22;18500;43.618;1.474;2023-07-24T15:42:20;23.50;1.00
31975;DHT22;18500;43.618;1.474;2023-07-24T15:44:48;23.50;1.00
31975;DHT22;18500;43.618;1.474;2023-07-24T15:47:13;23.30;1.00